sensor_id;sensor_type;location;lat;lon;timestamp;P1;durP1;ratioP1;P2;durP2;ratioP2
49444;SDS011;35323;43.080;-81.378;2023-07-09T00:01:13;5.72;;;4.68;;
49444;SDS011;35323;43.080;-81.378;2023-07-09T00:06:09;6.68;;;5.10;;
49444;SDS011;35323;43.080;-81.378;2023-07-09T00:08:37;7.63;;;4.85;;
49444;SDS011;35323;43.080;-81.378;2023-07-09T00:11:06;5.68;;;4.80;;
49444;SDS011;35323;43.080;-81.378;2023-07-09T00:13:33;5.90;;;5.00;;
49444;SDS011;35323;43.080;-81.378;2023-07-09T00:16:03;5.68;;;5.05;;
49444;SDS011;35323;43.080;-81.378;2023-07-09T00:18:34;4.78;;;4.28;;
49444;SDS011;35323;43.080;-81.378;2023-07-09T00:21:06;5.53;;;5.03;;
49444;SDS011;35323;43.080;-81.378;2023-07-09T00:23:33;6.00;;;5.20;;
49444;SDS011;35323;43.080;-81.378;2023-07-09T00:26:01;5.05;;;4.55;;
49444;SDS011;35323;43.080;-81.378;2023-07-09T00:28:31;5.82;;;5.32;;
49444;SDS011;35323;43.080;-81.378;2023-07-09T00:30:58;5.85;;;4.90;;
49444;SDS011;35323;43.080;-81.378;2023-07-09T00:33:26;4.78;;;4.25;;
49444;SDS011;35323;43.080;-81.378;2023-07-09T00:36:01;6.47;;;4.82;;
49444;SDS011;35323;43.080;-81.378;2023-07-09T00:38:29;6.22;;;5.32;;
49444;SDS011;35323;43.080;-81.378;2023-07-09T00:41:04;9.27;;;5.40;;
49444;SDS011;35323;43.080;-81.378;2023-07-09T00:43:34;7.13;;;5.90;;
49444;SDS011;35323;43.080;-81.378;2023-07-09T00:48:38;8.30;;;6.10;;
49444;SDS011;35323;43.080;-81.378;2023-07-09T00:51:09;5.72;;;4.50;;
49444;SDS011;35323;43.080;-81.378;2023-07-09T00:53:38;8.88;;;5.70;;
49444;SDS011;35323;43.080;-81.378;2023-07-09T00:56:46;6.00;;;4.68;;
49444;SDS011;35323;43.080;-81.378;2023-07-09T00:59:08;7.95;;;5.45;;
49444;SDS011;35323;43.080;-81.378;2023-07-09T01:01:36;5.88;;;4.80;;
49444;SDS011;35323;43.080;-81.378;2023-07-09T01:04:08;6.88;;;4.60;;
49444;SDS011;35323;43.080;-81.378;2023-07-09T01:06:47;5.47;;;4.88;;
49444;SDS011;35323;43.080;-81.378;2023-07-09T01:09:16;5.53;;;5.03;;
49444;SDS011;35323;43.080;-81.378;2023-07-09T01:11:44;6.25;;;5.28;;
49444;SDS011;35323;43.080;-81.378;2023-07-09T01:14:13;6.25;;;5.20;;
49444;SDS011;35323;43.080;-81.378;2023-07-09T01:16:48;5.43;;;4.82;;
49444;SDS011;35323;43.080;-81.378;2023-07-09T01:19:20;7.07;;;4.70;;
49444;SDS011;35323;43.080;-81.378;2023-07-09T01:21:55;9.23;;;4.32;;
49444;SDS011;35323;43.080;-81.378;2023-07-09T01:27:09;5.65;;;5.15;;
49444;SDS011;35323;43.080;-81.378;2023-07-09T01:29:37;6.45;;;5.15;;
49444;SDS011;35323;43.080;-81.378;2023-07-09T01:32:06;6.72;;;5.32;;
49444;SDS011;35323;43.080;-81.378;2023-07-09T01:34:33;6.78;;;4.75;;
49444;SDS011;35323;43.080;-81.378;2023-07-09T01:37:01;4.63;;;4.10;;
49444;SDS011;35323;43.080;-81.378;2023-07-09T01:39:28;8.10;;;5.88;;
49444;SDS011;35323;43.080;-81.378;2023-07-09T01:41:57;6.10;;;5.07;;
49444;SDS011;35323;43.080;-81.378;2023-07-09T01:44:24;9.75;;;7.22;;
49444;SDS011;35323;43.080;-81.378;2023-07-09T01:46:56;6.63;;;6.05;;
49444;SDS011;35323;43.080;-81.378;2023-07-09T01:49:23;7.68;;;6.07;;
49444;SDS011;35323;43.080;-81.378;2023-07-09T01:51:53;6.13;;;4.70;;
49444;SDS011;35323;43.080;-81.378;2023-07-09T01:54:22;5.25;;;4.75;;
49444;SDS011;35323;43.080;-81.378;2023-07-09T01:56:50;6.50;;;5.90;;
49444;SDS011;35323;43.080;-81.378;2023-07-09T01:59:18;8.52;;;5.68;;
49444;SDS011;35323;43.080;-81.378;2023-07-09T02:01:48;12.48;;;5.75;;
49444;SDS011;35323;43.080;-81.378;2023-07-09T02:04:17;6.57;;;5.90;;
49444;SDS011;35323;43.080;-81.378;2023-07-09T02:06:45;8.40;;;6.13;;
49444;SDS011;35323;43.080;-81.378;2023-07-09T02:09:12;5.55;;;4.47;;
49444;SDS011;35323;43.080;-81.378;2023-07-09T02:11:41;6.18;;;4.78;;
49444;SDS011;35323;43.080;-81.378;2023-07-09T02:14:08;8.77;;;5.05;;
49444;SDS011;35323;43.080;-81.378;2023-07-09T02:16:36;8.10;;;5.60;;
49444;SDS011;35323;43.080;-81.378;2023-07-09T02:19:04;5.82;;;5.25;;
49444;SDS011;35323;43.080;-81.378;2023-07-09T02:21:32;5.28;;;4.78;;
49444;SDS011;35323;43.080;-81.378;2023-07-09T02:23:59;9.00;;;6.93;;
49444;SDS011;35323;43.080;-81.378;2023-07-09T02:26:27;7.75;;;5.18;;
49444;SDS011;35323;43.080;-81.378;2023-07-09T02:28:54;4.55;;;4.15;;
49444;SDS011;35323;43.080;-81.378;2023-07-09T02:31:23;7.22;;;5.32;;
49444;SDS011;35323;43.080;-81.378;2023-07-09T02:33:51;11.73;;;5.38;;
49444;SDS011;35323;43.080;-81.378;2023-07-09T02:36:18;7.28;;;5.82;;
49444;SDS011;35323;43.080;-81.378;2023-07-09T02:38:46;5.47;;;4.63;;
49444;SDS011;35323;43.080;-81.378;2023-07-09T02:41:13;5.82;;;4.82;;
49444;SDS011;35323;43.080;-81.378;2023-07-09T02:43:41;6.38;;;4.50;;
49444;SDS011;35323;43.080;-81.378;2023-07-09T02:46:11;5.53;;;4.63;;
49444;SDS011;35323;43.080;-81.378;2023-07-09T02:48:41;12.02;;;5.85;;
49444;SDS011;35323;43.080;-81.378;2023-07-09T02:51:09;7.90;;;5.40;;
49444;SDS011;35323;43.080;-81.378;2023-07-09T02:53:37;5.72;;;5.13;;
49444;SDS011;35323;43.080;-81.378;2023-07-09T02:56:05;8.27;;;5.15;;
49444;SDS011;35323;43.080;-81.378;2023-07-09T02:58:33;7.15;;;6.47;;
49444;SDS011;35323;43.080;-81.378;2023-07-09T03:01:01;8.63;;;5.72;;
49444;SDS011;35323;43.080;-81.378;2023-07-09T03:03:31;6.38;;;5.78;;
49444;SDS011;35323;43.080;-81.378;2023-07-09T03:05:59;7.85;;;6.95;;
49444;SDS011;35323;43.080;-81.378;2023-07-09T03:08:30;5.35;;;4.85;;
49444;SDS011;35323;43.080;-81.378;2023-07-09T03:10:59;5.35;;;4.85;;
49444;SDS011;35323;43.080;-81.378;2023-07-09T03:13:30;8.55;;;5.78;;
49444;SDS011;35323;43.080;-81.378;2023-07-09T03:15:58;6.80;;;4.93;;
49444;SDS011;35323;43.080;-81.378;2023-07-09T03:18:27;5.88;;;4.22;;
49444;SDS011;35323;43.080;-81.378;2023-07-09T03:20:54;6.05;;;4.75;;
49444;SDS011;35323;43.080;-81.378;2023-07-09T03:23:23;8.02;;;4.43;;
49444;SDS011;35323;43.080;-81.378;2023-07-09T03:25:50;7.10;;;4.75;;
49444;SDS011;35323;43.080;-81.378;2023-07-09T03:28:18;5.32;;;4.82;;
49444;SDS011;35323;43.080;-81.378;2023-07-09T03:30:47;5.40;;;4.65;;
49444;SDS011;35323;43.080;-81.378;2023-07-09T03:33:15;5.57;;;4.65;;
49444;SDS011;35323;43.080;-81.378;2023-07-09T03:35:43;4.57;;;4.10;;
49444;SDS011;35323;43.080;-81.378;2023-07-09T03:38:11;8.60;;;5.97;;
49444;SDS011;35323;43.080;-81.378;2023-07-09T03:40:39;5.93;;;5.43;;
49444;SDS011;35323;43.080;-81.378;2023-07-09T03:43:08;6.47;;;5.80;;
49444;SDS011;35323;43.080;-81.378;2023-07-09T03:45:36;8.10;;;4.45;;
49444;SDS011;35323;43.080;-81.378;2023-07-09T03:48:04;6.97;;;4.93;;
49444;SDS011;35323;43.080;-81.378;2023-07-09T03:50:32;5.57;;;4.63;;
49444;SDS011;35323;43.080;-81.378;2023-07-09T03:53:01;7.57;;;5.85;;
49444;SDS011;35323;43.080;-81.378;2023-07-09T03:55:28;5.43;;;4.93;;
49444;SDS011;35323;43.080;-81.378;2023-07-09T03:57:56;6.32;;;5.22;;
49444;SDS011;35323;43.080;-81.378;2023-07-09T04:00:28;6.28;;;4.82;;
49444;SDS011;35323;43.080;-81.378;2023-07-09T04:02:55;7.70;;;5.10;;
49444;SDS011;35323;43.080;-81.378;2023-07-09T04:05:26;10.52;;;5.28;;
49444;SDS011;35323;43.080;-81.378;2023-07-09T04:07:54;9.05;;;5.70;;
49444;SDS011;35323;43.080;-81.378;2023-07-09T04:10:22;5.28;;;4.53;;
49444;SDS011;35323;43.080;-81.378;2023-07-09T04:12:49;5.85;;;4.85;;
49444;SDS011;35323;43.080;-81.378;2023-07-09T04:15:17;8.38;;;5.28;;
49444;SDS011;35323;43.080;-81.378;2023-07-09T04:17:45;7.03;;;6.15;;
49444;SDS011;35323;43.080;-81.378;2023-07-09T04:20:12;8.98;;;5.45;;
49444;SDS011;35323;43.080;-81.378;2023-07-09T04:22:41;8.05;;;7.10;;
49444;SDS011;35323;43.080;-81.378;2023-07-09T04:25:10;6.90;;;5.38;;
49444;SDS011;35323;43.080;-81.378;2023-07-09T04:27:38;9.20;;;6.13;;
49444;SDS011;35323;43.080;-81.378;2023-07-09T04:30:13;7.43;;;5.90;;
49444;SDS011;35323;43.080;-81.378;2023-07-09T04:32:44;10.77;;;8.68;;
49444;SDS011;35323;43.080;-81.378;2023-07-09T04:35:13;8.52;;;6.47;;
49444;SDS011;35323;43.080;-81.378;2023-07-09T04:37:41;10.35;;;6.65;;
49444;SDS011;35323;43.080;-81.378;2023-07-09T04:40:09;9.20;;;5.65;;
49444;SDS011;35323;43.080;-81.378;2023-07-09T04:42:40;5.75;;;5.15;;
49444;SDS011;35323;43.080;-81.378;2023-07-09T04:45:09;8.02;;;5.70;;
49444;SDS011;35323;43.080;-81.378;2023-07-09T04:47:38;8.13;;;5.78;;
49444;SDS011;35323;43.080;-81.378;2023-07-09T04:50:07;6.47;;;4.82;;
49444;SDS011;35323;43.080;-81.378;2023-07-09T04:52:35;8.18;;;5.72;;
49444;SDS011;35323;43.080;-81.378;2023-07-09T04:55:02;7.80;;;6.50;;
49444;SDS011;35323;43.080;-81.378;2023-07-09T04:57:31;7.25;;;5.18;;
49444;SDS011;35323;43.080;-81.378;2023-07-09T04:59:59;8.18;;;6.90;;
49444;SDS011;35323;43.080;-81.378;2023-07-09T05:02:26;5.68;;;5.07;;
49444;SDS011;35323;43.080;-81.378;2023-07-09T05:04:54;8.85;;;6.50;;
49444;SDS011;35323;43.080;-81.378;2023-07-09T05:07:22;8.82;;;6.35;;
49444;SDS011;35323;43.080;-81.378;2023-07-09T05:09:49;8.63;;;5.50;;
49444;SDS011;35323;43.080;-81.378;2023-07-09T05:12:17;8.20;;;5.68;;
49444;SDS011;35323;43.080;-81.378;2023-07-09T05:14:47;8.48;;;6.97;;
49444;SDS011;35323;43.080;-81.378;2023-07-09T05:17:15;6.47;;;5.85;;
49444;SDS011;35323;43.080;-81.378;2023-07-09T05:19:46;9.60;;;7.22;;
49444;SDS011;35323;43.080;-81.378;2023-07-09T05:22:13;7.07;;;5.03;;
49444;SDS011;35323;43.080;-81.378;2023-07-09T05:24:41;7.63;;;5.63;;
49444;SDS011;35323;43.080;-81.378;2023-07-09T05:27:11;6.50;;;5.90;;
49444;SDS011;35323;43.080;-81.378;2023-07-09T05:29:40;10.90;;;6.70;;
49444;SDS011;35323;43.080;-81.378;2023-07-09T05:32:08;8.45;;;6.65;;
49444;SDS011;35323;43.080;-81.378;2023-07-09T05:34:36;6.72;;;5.95;;
49444;SDS011;35323;43.080;-81.378;2023-07-09T05:37:03;6.72;;;5.93;;
49444;SDS011;35323;43.080;-81.378;2023-07-09T05:39:31;9.60;;;5.68;;
49444;SDS011;35323;43.080;-81.378;2023-07-09T05:41:59;7.75;;;6.05;;
49444;SDS011;35323;43.080;-81.378;2023-07-09T05:44:27;8.00;;;7.30;;
49444;SDS011;35323;43.080;-81.378;2023-07-09T05:46:54;7.75;;;6.80;;
49444;SDS011;35323;43.080;-81.378;2023-07-09T05:49:22;9.68;;;7.22;;
49444;SDS011;35323;43.080;-81.378;2023-07-09T05:51:50;8.23;;;4.95;;
49444;SDS011;35323;43.080;-81.378;2023-07-09T05:54:22;7.60;;;6.50;;
49444;SDS011;35323;43.080;-81.378;2023-07-09T05:56:49;7.68;;;6.07;;
49444;SDS011;35323;43.080;-81.378;2023-07-09T05:59:17;7.93;;;6.28;;
49444;SDS011;35323;43.080;-81.378;2023-07-09T06:01:47;12.88;;;6.40;;
49444;SDS011;35323;43.080;-81.378;2023-07-09T06:04:15;6.95;;;5.38;;
49444;SDS011;35323;43.080;-81.378;2023-07-09T06:06:43;7.32;;;6.35;;
49444;SDS011;35323;43.080;-81.378;2023-07-09T06:09:14;9.35;;;7.57;;
49444;SDS011;35323;43.080;-81.378;2023-07-09T06:11:43;7.78;;;7.07;;
49444;SDS011;35323;43.080;-81.378;2023-07-09T06:14:11;5.75;;;5.15;;
49444;SDS011;35323;43.080;-81.378;2023-07-09T06:16:39;7.55;;;6.35;;
49444;SDS011;35323;43.080;-81.378;2023-07-09T06:19:06;8.50;;;5.70;;
49444;SDS011;35323;43.080;-81.378;2023-07-09T06:21:34;7.95;;;6.85;;
49444;SDS011;35323;43.080;-81.378;2023-07-09T06:24:02;8.48;;;7.20;;
49444;SDS011;35323;43.080;-81.378;2023-07-09T06:26:29;9.15;;;7.03;;
49444;SDS011;35323;43.080;-81.378;2023-07-09T06:28:57;8.23;;;5.45;;
49444;SDS011;35323;43.080;-81.378;2023-07-09T06:31:25;13.52;;;6.38;;
49444;SDS011;35323;43.080;-81.378;2023-07-09T06:33:53;6.63;;;5.97;;
49444;SDS011;35323;43.080;-81.378;2023-07-09T06:36:21;6.82;;;6.15;;
49444;SDS011;35323;43.080;-81.378;2023-07-09T06:38:48;9.23;;;6.75;;
49444;SDS011;35323;43.080;-81.378;2023-07-09T06:41:16;7.90;;;5.25;;
49444;SDS011;35323;43.080;-81.378;2023-07-09T06:43:44;7.45;;;6.22;;
49444;SDS011;35323;43.080;-81.378;2023-07-09T06:46:13;6.93;;;6.20;;
49444;SDS011;35323;43.080;-81.378;2023-07-09T06:48:41;9.82;;;8.35;;
49444;SDS011;35323;43.080;-81.378;2023-07-09T06:51:10;7.07;;;5.40;;
49444;SDS011;35323;43.080;-81.378;2023-07-09T06:53:41;6.35;;;5.65;;
49444;SDS011;35323;43.080;-81.378;2023-07-09T06:56:10;10.77;;;6.30;;
49444;SDS011;35323;43.080;-81.378;2023-07-09T06:58:37;8.02;;;5.65;;
49444;SDS011;35323;43.080;-81.378;2023-07-09T07:01:06;6.70;;;6.00;;
49444;SDS011;35323;43.080;-81.378;2023-07-09T07:03:33;6.40;;;5.40;;
49444;SDS011;35323;43.080;-81.378;2023-07-09T07:06:01;9.35;;;5.68;;
49444;SDS011;35323;43.080;-81.378;2023-07-09T07:08:30;14.13;;;8.63;;
49444;SDS011;35323;43.080;-81.378;2023-07-09T07:10:58;8.52;;;6.10;;
49444;SDS011;35323;43.080;-81.378;2023-07-09T07:13:34;6.60;;;5.32;;
49444;SDS011;35323;43.080;-81.378;2023-07-09T07:16:04;7.22;;;6.30;;
49444;SDS011;35323;43.080;-81.378;2023-07-09T07:18:32;6.30;;;5.70;;
49444;SDS011;35323;43.080;-81.378;2023-07-09T07:21:00;10.68;;;5.63;;
49444;SDS011;35323;43.080;-81.378;2023-07-09T07:23:29;8.90;;;5.95;;
49444;SDS011;35323;43.080;-81.378;2023-07-09T07:25:57;8.48;;;6.47;;
49444;SDS011;35323;43.080;-81.378;2023-07-09T07:28:24;8.20;;;6.40;;
49444;SDS011;35323;43.080;-81.378;2023-07-09T07:30:59;7.43;;;5.57;;
49444;SDS011;35323;43.080;-81.378;2023-07-09T07:33:27;7.45;;;5.53;;
49444;SDS011;35323;43.080;-81.378;2023-07-09T07:35:54;6.88;;;5.75;;
49444;SDS011;35323;43.080;-81.378;2023-07-09T07:38:25;8.35;;;5.55;;
49444;SDS011;35323;43.080;-81.378;2023-07-09T07:40:53;7.15;;;6.43;;
49444;SDS011;35323;43.080;-81.378;2023-07-09T07:43:20;7.50;;;5.70;;
49444;SDS011;35323;43.080;-81.378;2023-07-09T07:45:48;5.75;;;5.15;;
49444;SDS011;35323;43.080;-81.378;2023-07-09T07:48:16;7.18;;;6.47;;
49444;SDS011;35323;43.080;-81.378;2023-07-09T07:50:44;7.63;;;5.30;;
49444;SDS011;35323;43.080;-81.378;2023-07-09T07:53:13;7.00;;;5.85;;
49444;SDS011;35323;43.080;-81.378;2023-07-09T07:55:44;8.80;;;7.60;;
49444;SDS011;35323;43.080;-81.378;2023-07-09T07:58:15;7.72;;;6.00;;
49444;SDS011;35323;43.080;-81.378;2023-07-09T08:00:43;11.40;;;5.97;;
49444;SDS011;35323;43.080;-81.378;2023-07-09T08:03:11;7.32;;;6.35;;
49444;SDS011;35323;43.080;-81.378;2023-07-09T08:05:41;6.72;;;5.63;;
49444;SDS011;35323;43.080;-81.378;2023-07-09T08:08:09;8.05;;;6.25;;
49444;SDS011;35323;43.080;-81.378;2023-07-09T08:10:37;14.30;;;6.10;;
49444;SDS011;35323;43.080;-81.378;2023-07-09T08:13:05;8.68;;;7.40;;
49444;SDS011;35323;43.080;-81.378;2023-07-09T08:15:32;6.90;;;6.07;;
49444;SDS011;35323;43.080;-81.378;2023-07-09T08:18:00;5.80;;;4.90;;
49444;SDS011;35323;43.080;-81.378;2023-07-09T08:20:28;8.77;;;5.38;;
49444;SDS011;35323;43.080;-81.378;2023-07-09T08:22:55;10.65;;;6.47;;
49444;SDS011;35323;43.080;-81.378;2023-07-09T08:25:23;6.80;;;5.90;;
49444;SDS011;35323;43.080;-81.378;2023-07-09T08:27:51;8.23;;;5.03;;
49444;SDS011;35323;43.080;-81.378;2023-07-09T08:30:19;7.70;;;6.65;;
49444;SDS011;35323;43.080;-81.378;2023-07-09T08:32:46;9.05;;;6.05;;
49444;SDS011;35323;43.080;-81.378;2023-07-09T08:35:15;7.85;;;6.60;;
49444;SDS011;35323;43.080;-81.378;2023-07-09T08:37:45;9.63;;;6.90;;
49444;SDS011;35323;43.080;-81.378;2023-07-09T08:40:14;6.70;;;5.35;;
49444;SDS011;35323;43.080;-81.378;2023-07-09T08:42:44;10.95;;;7.03;;
49444;SDS011;35323;43.080;-81.378;2023-07-09T08:48:15;8.55;;;6.00;;
49444;SDS011;35323;43.080;-81.378;2023-07-09T08:50:47;9.07;;;6.20;;
49444;SDS011;35323;43.080;-81.378;2023-07-09T08:53:36;8.07;;;6.50;;
49444;SDS011;35323;43.080;-81.378;2023-07-09T08:56:08;8.23;;;6.60;;
49444;SDS011;35323;43.080;-81.378;2023-07-09T08:58:42;7.40;;;6.65;;
49444;SDS011;35323;43.080;-81.378;2023-07-09T09:01:20;7.78;;;6.95;;
49444;SDS011;35323;43.080;-81.378;2023-07-09T09:03:50;9.85;;;7.13;;
49444;SDS011;35323;43.080;-81.378;2023-07-09T09:06:22;8.50;;;7.10;;
49444;SDS011;35323;43.080;-81.378;2023-07-09T09:09:11;13.82;;;6.13;;
49444;SDS011;35323;43.080;-81.378;2023-07-09T09:14:18;9.10;;;7.07;;
49444;SDS011;35323;43.080;-81.378;2023-07-09T09:16:47;9.50;;;6.75;;
49444;SDS011;35323;43.080;-81.378;2023-07-09T09:19:31;9.15;;;5.97;;
49444;SDS011;35323;43.080;-81.378;2023-07-09T09:22:07;10.25;;;7.72;;
49444;SDS011;35323;43.080;-81.378;2023-07-09T09:24:58;7.53;;;6.75;;
49444;SDS011;35323;43.080;-81.378;2023-07-09T09:27:24;9.00;;;7.20;;
49444;SDS011;35323;43.080;-81.378;2023-07-09T09:29:51;8.95;;;7.60;;
49444;SDS011;35323;43.080;-81.378;2023-07-09T09:34:50;10.57;;;8.57;;
49444;SDS011;35323;43.080;-81.378;2023-07-09T09:37:26;10.60;;;8.95;;
49444;SDS011;35323;43.080;-81.378;2023-07-09T09:39:55;7.25;;;6.63;;
49444;SDS011;35323;43.080;-81.378;2023-07-09T09:42:40;8.45;;;6.85;;
49444;SDS011;35323;43.080;-81.378;2023-07-09T09:45:11;7.97;;;7.20;;
49444;SDS011;35323;43.080;-81.378;2023-07-09T09:47:42;10.15;;;8.18;;
49444;SDS011;35323;43.080;-81.378;2023-07-09T09:50:19;11.35;;;7.40;;
49444;SDS011;35323;43.080;-81.378;2023-07-09T09:52:47;11.15;;;7.78;;
49444;SDS011;35323;43.080;-81.378;2023-07-09T09:57:47;8.93;;;7.97;;
49444;SDS011;35323;43.080;-81.378;2023-07-09T10:00:15;12.95;;;8.02;;
49444;SDS011;35323;43.080;-81.378;2023-07-09T10:02:44;9.13;;;7.22;;
49444;SDS011;35323;43.080;-81.378;2023-07-09T10:05:15;9.70;;;8.70;;
49444;SDS011;35323;43.080;-81.378;2023-07-09T10:07:43;8.95;;;6.72;;
49444;SDS011;35323;43.080;-81.378;2023-07-09T10:10:14;17.02;;;7.57;;
49444;SDS011;35323;43.080;-81.378;2023-07-09T10:12:52;9.93;;;8.82;;
49444;SDS011;35323;43.080;-81.378;2023-07-09T10:15:34;11.65;;;9.98;;
49444;SDS011;35323;43.080;-81.378;2023-07-09T10:25:49;13.38;;;8.18;;
49444;SDS011;35323;43.080;-81.378;2023-07-09T10:36:45;11.27;;;9.82;;
49444;SDS011;35323;43.080;-81.378;2023-07-09T10:39:30;8.93;;;7.22;;
49444;SDS011;35323;43.080;-81.378;2023-07-09T10:41:59;12.73;;;8.45;;
49444;SDS011;35323;43.080;-81.378;2023-07-09T10:44:31;11.40;;;10.35;;
49444;SDS011;35323;43.080;-81.378;2023-07-09T10:47:02;11.70;;;8.88;;
49444;SDS011;35323;43.080;-81.378;2023-07-09T10:49:35;13.70;;;8.15;;
49444;SDS011;35323;43.080;-81.378;2023-07-09T10:52:05;10.23;;;9.15;;
49444;SDS011;35323;43.080;-81.378;2023-07-09T10:57:30;7.95;;;6.95;;
49444;SDS011;35323;43.080;-81.378;2023-07-09T10:59:57;8.65;;;7.45;;
49444;SDS011;35323;43.080;-81.378;2023-07-09T11:02:32;9.93;;;7.80;;
49444;SDS011;35323;43.080;-81.378;2023-07-09T11:05:01;9.85;;;8.95;;
49444;SDS011;35323;43.080;-81.378;2023-07-09T11:07:41;13.55;;;9.77;;
49444;SDS011;35323;43.080;-81.378;2023-07-09T11:10:24;14.45;;;8.75;;
49444;SDS011;35323;43.080;-81.378;2023-07-09T11:12:57;8.07;;;6.80;;
49444;SDS011;35323;43.080;-81.378;2023-07-09T11:15:29;10.65;;;8.70;;
49444;SDS011;35323;43.080;-81.378;2023-07-09T11:17:58;9.75;;;8.75;;
49444;SDS011;35323;43.080;-81.378;2023-07-09T11:20:35;10.60;;;8.75;;
49444;SDS011;35323;43.080;-81.378;2023-07-09T11:23:04;13.68;;;11.23;;
49444;SDS011;35323;43.080;-81.378;2023-07-09T11:25:42;10.13;;;8.77;;
49444;SDS011;35323;43.080;-81.378;2023-07-09T11:28:11;10.07;;;8.25;;
49444;SDS011;35323;43.080;-81.378;2023-07-09T11:30:46;10.30;;;7.85;;
49444;SDS011;35323;43.080;-81.378;2023-07-09T11:33:45;9.30;;;8.32;;
49444;SDS011;35323;43.080;-81.378;2023-07-09T11:36:09;8.00;;;7.05;;
49444;SDS011;35323;43.080;-81.378;2023-07-09T11:38:44;11.80;;;8.40;;
49444;SDS011;35323;43.080;-81.378;2023-07-09T11:43:53;8.82;;;7.63;;
49444;SDS011;35323;43.080;-81.378;2023-07-09T11:46:30;8.70;;;7.40;;
49444;SDS011;35323;43.080;-81.378;2023-07-09T11:48:58;14.00;;;10.35;;
49444;SDS011;35323;43.080;-81.378;2023-07-09T11:51:50;8.30;;;7.43;;
49444;SDS011;35323;43.080;-81.378;2023-07-09T11:54:17;9.70;;;8.65;;
49444;SDS011;35323;43.080;-81.378;2023-07-09T11:56:58;8.57;;;7.45;;
49444;SDS011;35323;43.080;-81.378;2023-07-09T11:59:26;10.38;;;8.43;;
49444;SDS011;35323;43.080;-81.378;2023-07-09T12:01:54;9.98;;;7.30;;
49444;SDS011;35323;43.080;-81.378;2023-07-09T12:04:27;9.20;;;8.20;;
49444;SDS011;35323;43.080;-81.378;2023-07-09T12:06:58;10.27;;;7.75;;
49444;SDS011;35323;43.080;-81.378;2023-07-09T12:09:32;8.48;;;7.57;;
49444;SDS011;35323;43.080;-81.378;2023-07-09T12:11:59;8.85;;;7.50;;
49444;SDS011;35323;43.080;-81.378;2023-07-09T12:14:28;8.65;;;6.13;;
49444;SDS011;35323;43.080;-81.378;2023-07-09T12:16:56;8.05;;;7.05;;
49444;SDS011;35323;43.080;-81.378;2023-07-09T12:19:24;8.55;;;7.63;;
49444;SDS011;35323;43.080;-81.378;2023-07-09T12:21:52;15.38;;;9.98;;
49444;SDS011;35323;43.080;-81.378;2023-07-09T12:24:34;11.63;;;7.10;;
49444;SDS011;35323;43.080;-81.378;2023-07-09T12:27:03;16.55;;;7.80;;
49444;SDS011;35323;43.080;-81.378;2023-07-09T12:29:34;8.15;;;7.25;;
49444;SDS011;35323;43.080;-81.378;2023-07-09T12:32:03;8.18;;;6.50;;
49444;SDS011;35323;43.080;-81.378;2023-07-09T12:34:31;10.18;;;8.48;;
49444;SDS011;35323;43.080;-81.378;2023-07-09T12:36:59;7.78;;;5.95;;
49444;SDS011;35323;43.080;-81.378;2023-07-09T12:39:28;9.70;;;7.43;;
49444;SDS011;35323;43.080;-81.378;2023-07-09T12:41:58;9.18;;;6.45;;
49444;SDS011;35323;43.080;-81.378;2023-07-09T12:44:27;8.30;;;7.20;;
49444;SDS011;35323;43.080;-81.378;2023-07-09T12:46:57;15.52;;;7.18;;
49444;SDS011;35323;43.080;-81.378;2023-07-09T12:49:26;8.15;;;7.35;;
49444;SDS011;35323;43.080;-81.378;2023-07-09T12:51:57;13.38;;;7.03;;
49444;SDS011;35323;43.080;-81.378;2023-07-09T12:54:27;11.77;;;7.68;;
49444;SDS011;35323;43.080;-81.378;2023-07-09T12:56:55;10.02;;;8.95;;
49444;SDS011;35323;43.080;-81.378;2023-07-09T12:59:24;8.68;;;7.32;;
49444;SDS011;35323;43.080;-81.378;2023-07-09T13:01:57;8.18;;;6.47;;
49444;SDS011;35323;43.080;-81.378;2023-07-09T13:04:31;7.70;;;6.78;;
49444;SDS011;35323;43.080;-81.378;2023-07-09T13:06:59;9.40;;;7.20;;
49444;SDS011;35323;43.080;-81.378;2023-07-09T13:09:27;7.70;;;6.97;;
49444;SDS011;35323;43.080;-81.378;2023-07-09T13:11:55;10.57;;;7.43;;
49444;SDS011;35323;43.080;-81.378;2023-07-09T13:14:27;10.05;;;7.32;;
49444;SDS011;35323;43.080;-81.378;2023-07-09T13:17:03;6.68;;;5.50;;
49444;SDS011;35323;43.080;-81.378;2023-07-09T13:19:31;9.30;;;6.50;;
49444;SDS011;35323;43.080;-81.378;2023-07-09T13:21:59;9.80;;;8.80;;
49444;SDS011;35323;43.080;-81.378;2023-07-09T13:24:30;10.57;;;8.13;;
49444;SDS011;35323;43.080;-81.378;2023-07-09T13:26:58;11.20;;;7.18;;
49444;SDS011;35323;43.080;-81.378;2023-07-09T13:29:26;8.88;;;7.97;;
49444;SDS011;35323;43.080;-81.378;2023-07-09T13:31:54;10.05;;;7.70;;
49444;SDS011;35323;43.080;-81.378;2023-07-09T13:34:26;9.02;;;8.15;;
49444;SDS011;35323;43.080;-81.378;2023-07-09T13:36:55;8.35;;;6.60;;
49444;SDS011;35323;43.080;-81.378;2023-07-09T13:39:25;8.45;;;6.72;;
49444;SDS011;35323;43.080;-81.378;2023-07-09T13:41:54;11.43;;;9.15;;
49444;SDS011;35323;43.080;-81.378;2023-07-09T13:44:24;11.23;;;7.50;;
49444;SDS011;35323;43.080;-81.378;2023-07-09T13:46:55;11.43;;;8.02;;
49444;SDS011;35323;43.080;-81.378;2023-07-09T13:49:24;10.00;;;7.40;;
49444;SDS011;35323;43.080;-81.378;2023-07-09T13:51:54;8.88;;;7.97;;
49444;SDS011;35323;43.080;-81.378;2023-07-09T13:54:24;10.13;;;7.25;;
49444;SDS011;35323;43.080;-81.378;2023-07-09T13:56:52;6.85;;;5.97;;
49444;SDS011;35323;43.080;-81.378;2023-07-09T13:59:21;10.88;;;7.63;;
49444;SDS011;35323;43.080;-81.378;2023-07-09T14:01:50;10.00;;;8.25;;
49444;SDS011;35323;43.080;-81.378;2023-07-09T14:04:19;8.73;;;6.97;;
49444;SDS011;35323;43.080;-81.378;2023-07-09T14:06:46;11.80;;;9.15;;
49444;SDS011;35323;43.080;-81.378;2023-07-09T14:09:15;10.60;;;8.98;;
49444;SDS011;35323;43.080;-81.378;2023-07-09T14:11:50;10.57;;;9.50;;
49444;SDS011;35323;43.080;-81.378;2023-07-09T14:14:23;10.00;;;7.85;;
49444;SDS011;35323;43.080;-81.378;2023-07-09T14:16:51;12.15;;;8.38;;
49444;SDS011;35323;43.080;-81.378;2023-07-09T14:19:22;12.55;;;7.47;;
49444;SDS011;35323;43.080;-81.378;2023-07-09T14:21:50;10.95;;;9.07;;
49444;SDS011;35323;43.080;-81.378;2023-07-09T14:24:26;10.25;;;7.15;;
49444;SDS011;35323;43.080;-81.378;2023-07-09T14:26:57;7.60;;;6.72;;
49444;SDS011;35323;43.080;-81.378;2023-07-09T14:29:25;12.20;;;7.55;;
49444;SDS011;35323;43.080;-81.378;2023-07-09T14:31:53;11.02;;;8.23;;
49444;SDS011;35323;43.080;-81.378;2023-07-09T14:34:24;9.90;;;8.43;;
49444;SDS011;35323;43.080;-81.378;2023-07-09T14:36:57;8.50;;;7.72;;
49444;SDS011;35323;43.080;-81.378;2023-07-09T14:39:28;8.25;;;7.03;;
49444;SDS011;35323;43.080;-81.378;2023-07-09T14:41:56;11.50;;;9.27;;
49444;SDS011;35323;43.080;-81.378;2023-07-09T14:44:31;11.80;;;8.80;;
49444;SDS011;35323;43.080;-81.378;2023-07-09T14:46:59;9.93;;;7.05;;
49444;SDS011;35323;43.080;-81.378;2023-07-09T14:49:27;8.98;;;6.82;;
49444;SDS011;35323;43.080;-81.378;2023-07-09T14:51:55;9.45;;;7.20;;
49444;SDS011;35323;43.080;-81.378;2023-07-09T14:54:24;11.52;;;8.15;;
49444;SDS011;35323;43.080;-81.378;2023-07-09T14:56:53;10.88;;;8.85;;
49444;SDS011;35323;43.080;-81.378;2023-07-09T14:59:21;11.40;;;9.10;;
49444;SDS011;35323;43.080;-81.378;2023-07-09T15:01:50;8.73;;;7.82;;
49444;SDS011;35323;43.080;-81.378;2023-07-09T15:06:49;9.75;;;7.75;;
49444;SDS011;35323;43.080;-81.378;2023-07-09T15:09:19;11.25;;;7.25;;
49444;SDS011;35323;43.080;-81.378;2023-07-09T15:11:48;8.65;;;7.72;;
49444;SDS011;35323;43.080;-81.378;2023-07-09T15:14:16;8.63;;;6.13;;
49444;SDS011;35323;43.080;-81.378;2023-07-09T15:16:46;9.75;;;6.57;;